Maunabo, PR (00707)

9:32 AM AST on July 01, 2015 (GMT -0400)
Manejo de Emergencias Maunabo | | Change Station
CLOSE
Current Station
Personal Weather Station
Location: Maunabo, PR
Elevation: 374 ft
Nearby Weather Stations

Elev 374 ft 18.01 °N, 65.90 °W | Updated 14 minutes ago

Overcast
Overcast
82.8 °F
Feels Like 91 °F
N
9.0
Wind Variable Wind from East
Gusts 19.0 mph

Today
High -- | Low -- °F
--% Chance of Precip.
Yesterday
High -- | Low -- °F
Precip. -- in
5:51 AM 7:03 PM
Full, 100% visible
Pressure 30.15 in
Visibility 10.0 miles
Clouds Few 2300 ft
Overcast 7000 ft
Heat Index 91 °F
Dew Point 76 °F
Humidity 80%
Rainfall -999.00 in
Snow Depth Not available.
UV 2 out of 12
Pollen Not available.
Air Quality Not available.
Flu Activity Not available.
METAR TJNR 011253Z AUTO 08007G17KT 10SM FEW023 OVC070 28/23 A3015 RMK AO2 SLP209 T02780233 $

More Conditions Fewer Conditions

Pressure 30.15 in
Visibility 10.0 miles
Clouds Few 2300 ft
Overcast 7000 ft
Heat Index 91 °F
Dew Point 76 °F
Humidity 80%
Rainfall -999.00 in
Snow Depth Not available.
UV 2 out of 12
Pollen Not available.
Air Quality Not available.
Flu Activity Not available.
METAR TJNR 011253Z AUTO 08007G17KT 10SM FEW023 OVC070 28/23 A3015 RMK AO2 SLP209 T02780233 $

More Conditions Fewer Conditions

10-Day Weather Forecast

×

Almanac

Astronomy

Jul. 01, 2015 Rise Set
Actual Time
Civil Twilight
Nautical Twilight
Astronomical Twilight
Moon
Length of Visible Light
Length of Day
Tomorrow will be .
, % of the Moon is Illuminated

Today's Extremes

State Highs State Lows

Community

WunderPhotos

Upload Photos

1,834,196 photos uploaded!

WunderBlogs® & News

Nearby

Air Quality

  Air Quality AQ Index Pollutant
Not available.

Snow Depth

Station Depth Elevation

Earthquake Activity

City Distance Mag. Time & Date
Minimum magnitude displayed is 2.5.

Coastal Water Temperatures

Place Temperature

Stations

Nearby Weather Stations

Station Location Temp. Windchill Dew Point Humidity Wind Precip. Elev Updated Type